createdAt,value
2024-02-27T00:01:09.841Z,5.22
2024-02-27T00:06:13.983Z,5.20
2024-02-27T00:11:18.124Z,5.17
2024-02-27T00:16:22.262Z,5.16
2024-02-27T00:21:26.580Z,5.14
2024-02-27T00:26:30.574Z,5.14
2024-02-27T00:31:34.760Z,5.13
2024-02-27T00:36:38.956Z,5.11
2024-02-27T00:41:43.133Z,5.08
2024-02-27T00:46:45.413Z,5.05
2024-02-27T00:51:49.510Z,5.05
2024-02-27T00:56:53.867Z,5.03
2024-02-27T01:01:57.853Z,5.00
2024-02-27T01:07:02.165Z,4.98
2024-02-27T01:12:06.265Z,4.95
2024-02-27T01:17:10.359Z,4.93
2024-02-27T01:22:14.503Z,4.90
2024-02-27T01:27:18.725Z,4.88
2024-02-27T01:32:22.801Z,4.85
2024-02-27T01:37:26.997Z,4.81
2024-02-27T01:42:31.189Z,4.80
2024-02-27T01:47:35.379Z,4.81
2024-02-27T01:52:39.481Z,4.79
2024-02-27T01:57:43.691Z,4.77
2024-02-27T02:02:47.825Z,4.77
2024-02-27T02:07:51.946Z,4.75
2024-02-27T02:12:56.169Z,4.74
2024-02-27T02:18:00.467Z,4.72
2024-02-27T02:23:04.479Z,4.73
2024-02-27T02:28:08.624Z,4.69
2024-02-27T02:33:13.094Z,4.70
2024-02-27T02:38:16.945Z,4.70
2024-02-27T02:43:21.147Z,4.70
2024-02-27T02:48:25.418Z,4.68
2024-02-27T02:53:29.433Z,4.67
2024-02-27T02:58:33.606Z,4.67
2024-02-27T03:03:37.794Z,4.66
2024-02-27T03:08:41.910Z,4.66
2024-02-27T03:13:46.105Z,4.64
2024-02-27T03:18:50.336Z,4.62
2024-02-27T03:23:54.434Z,4.62
2024-02-27T03:28:58.627Z,4.58
2024-02-27T03:34:02.813Z,4.54
2024-02-27T03:39:06.946Z,4.48
2024-02-27T03:44:11.070Z,4.45
2024-02-27T03:49:15.331Z,4.42
2024-02-27T03:54:19.427Z,4.40
2024-02-27T03:59:23.585Z,4.39
2024-02-27T04:04:27.720Z,4.40
2024-02-27T04:09:32.012Z,4.40
2024-02-27T04:14:36.074Z,4.41
2024-02-27T04:19:40.388Z,4.37
2024-02-27T04:24:44.390Z,4.35
2024-02-27T04:29:48.583Z,4.36
2024-02-27T04:34:52.704Z,4.35
2024-02-27T04:39:56.860Z,4.34
2024-02-27T04:45:01.056Z,4.33
2024-02-27T04:50:05.205Z,4.32
2024-02-27T04:55:09.392Z,4.32
2024-02-27T05:00:13.560Z,4.33
2024-02-27T05:05:17.794Z,4.33
2024-02-27T05:10:21.896Z,4.30
2024-02-27T05:15:26.078Z,4.30
2024-02-27T05:20:30.211Z,4.28
2024-02-27T05:25:34.371Z,4.25
2024-02-27T05:30:38.561Z,4.25
2024-02-27T05:40:46.940Z,4.23
2024-02-27T05:45:51.050Z,4.24
2024-02-27T05:50:55.189Z,4.24
2024-02-27T05:55:59.344Z,4.23
2024-02-27T06:01:03.598Z,4.22
2024-02-27T06:06:07.901Z,4.21
2024-02-27T06:11:11.844Z,4.19
2024-02-27T06:16:14.082Z,4.18
2024-02-27T06:21:18.321Z,4.18
2024-02-27T06:26:22.418Z,4.17
2024-02-27T06:31:26.596Z,4.16
2024-02-27T06:36:30.779Z,4.16
2024-02-27T06:41:34.944Z,4.17
2024-02-27T06:46:37.188Z,4.20
2024-02-27T06:51:41.386Z,4.19
2024-02-27T06:56:45.539Z,4.21
2024-02-27T07:01:49.708Z,4.16
2024-02-27T07:06:53.918Z,4.19
2024-02-27T07:11:58.101Z,4.20
2024-02-27T07:17:02.204Z,4.21
2024-02-27T07:22:06.345Z,4.22
2024-02-27T07:27:10.584Z,4.25
2024-02-27T07:32:14.651Z,4.23
2024-02-27T07:37:18.836Z,4.22
2024-02-27T07:42:23.052Z,4.16
2024-02-27T07:47:27.185Z,4.19
2024-02-27T07:52:31.346Z,4.18
2024-02-27T07:57:35.522Z,4.19
2024-02-27T08:02:39.647Z,4.17
2024-02-27T08:07:43.822Z,4.13
2024-02-27T08:12:47.990Z,4.07
2024-02-27T08:17:52.190Z,4.07
2024-02-27T08:22:56.339Z,4.04
2024-02-27T08:28:00.540Z,4.03
2024-02-27T08:33:04.752Z,4.01
2024-02-27T08:38:10.302Z,4.05
2024-02-27T08:43:12.942Z,4.12
2024-02-27T08:48:19.215Z,4.20
2024-02-27T08:53:21.296Z,4.08
2024-02-27T08:58:25.461Z,4.11
2024-02-27T09:03:29.689Z,4.08
2024-02-27T09:08:33.795Z,4.17
2024-02-27T09:13:37.998Z,4.09
2024-02-27T09:18:42.336Z,4.25
2024-02-27T09:23:46.277Z,4.07
2024-02-27T09:28:50.424Z,4.14
2024-02-27T09:33:54.659Z,4.32
2024-02-27T09:38:58.737Z,4.43
2024-02-27T09:44:02.953Z,4.53
2024-02-27T09:49:07.289Z,4.61
2024-02-27T09:54:11.249Z,4.46
2024-02-27T09:59:15.411Z,4.29
2024-02-27T10:04:19.622Z,4.33
2024-02-27T10:09:23.792Z,4.37
2024-02-27T10:14:27.929Z,4.33
2024-02-27T10:19:32.234Z,4.36
2024-02-27T10:24:36.405Z,4.45
2024-02-27T10:29:41.581Z,4.45
2024-02-27T10:34:44.768Z,4.42
2024-02-27T10:39:48.728Z,4.44
2024-02-27T10:44:52.867Z,4.51
2024-02-27T10:49:57.173Z,4.73
2024-02-27T10:55:01.230Z,4.86
2024-02-27T11:00:05.447Z,5.03
2024-02-27T11:05:09.643Z,5.04
2024-02-27T11:10:13.697Z,5.11
2024-02-27T11:15:17.978Z,4.93
2024-02-27T11:20:22.046Z,5.17
2024-02-27T11:25:26.204Z,5.13
2024-02-27T11:30:30.419Z,5.19
2024-02-27T11:35:34.507Z,5.32
2024-02-27T11:40:38.807Z,5.30
2024-02-27T11:45:42.942Z,5.48
2024-02-27T11:50:47.010Z,5.71
2024-02-27T11:55:51.153Z,5.76
2024-02-27T12:00:55.640Z,5.75
2024-02-27T12:05:59.497Z,5.63
2024-02-27T12:11:03.703Z,5.56
2024-02-27T12:16:05.980Z,5.52
2024-02-27T12:21:10.108Z,5.55
2024-02-27T12:26:14.284Z,5.49
2024-02-27T12:31:18.441Z,5.38
2024-02-27T12:36:22.585Z,5.27
2024-02-27T12:41:26.767Z,5.52
2024-02-27T12:44:33.455Z,5.63
2024-02-27T12:50:14.905Z,5.64
2024-02-27T12:55:19.068Z,5.69
2024-02-27T13:00:23.304Z,5.83
2024-02-27T13:05:27.854Z,5.72
2024-02-27T13:10:31.662Z,5.56
2024-02-27T13:15:35.772Z,5.86
2024-02-27T13:20:39.933Z,6.11
2024-02-27T13:25:44.086Z,6.33
2024-02-27T13:30:48.445Z,6.57
2024-02-27T13:35:52.413Z,6.54
2024-02-27T13:40:56.602Z,6.70
2024-02-27T13:46:00.782Z,6.93
2024-02-27T13:51:05.123Z,7.12
2024-02-27T13:56:09.039Z,7.09
2024-02-27T14:01:13.365Z,7.32
2024-02-27T14:06:17.468Z,7.42
2024-02-27T14:11:21.611Z,7.32
2024-02-27T14:16:25.704Z,7.26
2024-02-27T14:21:29.916Z,7.33
2024-02-27T14:26:32.120Z,7.38
2024-02-27T14:31:36.291Z,7.34
2024-02-27T14:36:40.503Z,7.47
2024-02-27T14:41:44.626Z,7.50
2024-02-27T14:46:48.844Z,7.68
2024-02-27T14:51:53.014Z,7.68
2024-02-27T14:56:57.161Z,7.85
2024-02-27T15:02:04.339Z,7.73
2024-02-27T15:07:05.513Z,7.63
2024-02-27T15:12:09.634Z,7.72
2024-02-27T15:17:13.766Z,7.47
2024-02-27T15:22:17.907Z,7.49
2024-02-27T15:27:22.096Z,7.47
2024-02-27T15:32:26.274Z,7.56
2024-02-27T15:37:30.405Z,7.36
2024-02-27T15:42:34.627Z,7.32
2024-02-27T15:47:38.796Z,7.26
2024-02-27T15:52:42.883Z,6.98
2024-02-27T15:57:47.213Z,6.77
2024-02-27T16:02:51.259Z,6.68
2024-02-27T16:07:53.542Z,6.51
2024-02-27T16:12:57.696Z,6.43
2024-02-27T16:18:02.022Z,6.31
2024-02-27T16:23:06.042Z,6.17
2024-02-27T16:28:10.123Z,6.10
2024-02-27T16:33:14.414Z,6.46
2024-02-27T16:38:18.495Z,6.08
2024-02-27T16:43:22.662Z,5.80
2024-02-27T16:48:26.895Z,5.63
2024-02-27T16:53:30.969Z,5.46
2024-02-27T16:58:35.126Z,5.24
2024-02-27T17:03:39.396Z,5.05
2024-02-27T17:08:43.436Z,4.84
2024-02-27T17:13:47.595Z,4.65
2024-02-27T17:18:51.991Z,4.42
2024-02-27T17:23:55.934Z,4.15
2024-02-27T17:29:00.076Z,4.00
2024-02-27T17:34:04.464Z,3.82
2024-02-27T17:39:08.469Z,3.58
2024-02-27T17:49:16.916Z,3.33
2024-02-27T17:54:19.054Z,3.21
2024-02-27T17:59:21.338Z,3.12
2024-02-27T18:04:25.723Z,2.95
2024-02-27T18:09:29.712Z,2.84
2024-02-27T18:14:33.816Z,2.64
2024-02-27T18:19:38.181Z,2.46
2024-02-27T18:24:42.205Z,2.33
2024-02-27T18:29:46.377Z,2.26
2024-02-27T18:34:50.477Z,2.14
2024-02-27T18:39:54.864Z,2.11
2024-02-27T18:44:58.786Z,2.11
2024-02-27T18:50:03.095Z,2.12
2024-02-27T18:55:07.106Z,2.06
2024-02-27T19:00:11.302Z,1.94
2024-02-27T19:05:15.521Z,1.83
2024-02-27T19:10:19.794Z,1.68
2024-02-27T19:15:23.826Z,1.58
2024-02-27T19:20:27.920Z,1.56
2024-02-27T19:25:32.100Z,1.46
2024-02-27T19:30:36.309Z,1.50
2024-02-27T19:35:40.630Z,1.63
2024-02-27T19:40:42.692Z,1.60
2024-02-27T19:45:45.130Z,1.44
2024-02-27T19:50:49.105Z,1.33
2024-02-27T19:55:53.308Z,1.10
2024-02-27T20:00:57.523Z,1.04
2024-02-27T20:06:01.650Z,0.92
2024-02-27T20:11:05.842Z,0.79
2024-02-27T20:16:09.971Z,0.84
2024-02-27T20:21:14.138Z,0.77
2024-02-27T20:26:18.508Z,0.71
2024-02-27T20:31:22.450Z,0.61
2024-02-27T20:36:26.662Z,0.56
2024-02-27T20:41:30.766Z,0.47
2024-02-27T20:46:34.955Z,0.36
2024-02-27T20:51:41.213Z,0.23
2024-02-27T20:56:43.290Z,0.11
2024-02-27T21:01:47.531Z,-0.14
2024-02-27T21:06:51.709Z,-0.08
2024-02-27T21:11:56.037Z,-0.22
2024-02-27T21:16:59.933Z,-0.35
2024-02-27T21:22:04.142Z,-0.40
2024-02-27T21:27:06.449Z,-0.39
2024-02-27T21:32:10.559Z,-0.52
2024-02-27T21:37:14.747Z,-0.56
2024-02-27T21:42:18.923Z,-0.63
2024-02-27T21:47:23.081Z,-0.71
2024-02-27T21:52:27.337Z,-0.65
2024-02-27T21:57:31.411Z,-0.65
2024-02-27T22:02:35.544Z,-0.40
2024-02-27T22:07:39.786Z,-0.53
2024-02-27T22:12:43.941Z,-0.70
2024-02-27T22:17:48.077Z,-0.70
2024-02-27T22:22:52.300Z,-0.87
2024-02-27T22:27:56.498Z,-0.90
2024-02-27T22:33:00.641Z,-0.95
2024-02-27T22:38:04.725Z,-1.16
2024-02-27T22:43:08.874Z,-1.14
2024-02-27T22:48:13.278Z,-1.09
2024-02-27T22:53:17.239Z,-0.90
2024-02-27T22:58:21.376Z,-0.71
2024-02-27T23:03:25.552Z,-0.69
2024-02-27T23:08:27.778Z,-0.82
2024-02-27T23:13:31.973Z,-0.94
2024-02-27T23:18:36.162Z,-0.95
2024-02-27T23:23:40.315Z,-1.08
2024-02-27T23:28:44.493Z,-1.09
2024-02-27T23:33:48.758Z,-1.20
2024-02-27T23:38:52.811Z,-1.20
2024-02-27T23:43:56.971Z,-1.24
2024-02-27T23:49:01.202Z,-1.23
2024-02-27T23:54:05.312Z,-1.31
2024-02-27T23:59:09.460Z,-1.37
